地図

経路データ

SID SEASON NUMBER BASIN SUBBASIN NAME ISO_TIME NATURE LAT LON WMO_WIND WMO_PRES WMO_AGENCY TRACK_TYPE DIST2LAND LANDFALL IFLAG USA_AGENCY USA_ATCF_ID USA_LAT USA_LON USA_RECORD USA_STATUS USA_WIND USA_PRES USA_SSHS USA_R34_NE USA_R34_SE USA_R34_SW USA_R34_NW USA_R50_NE USA_R50_SE USA_R50_SW USA_R50_NW USA_R64_NE USA_R64_SE USA_R64_SW USA_R64_NW USA_POCI USA_ROCI USA_RMW USA_EYE TOKYO_LAT TOKYO_LON TOKYO_GRADE TOKYO_WIND TOKYO_PRES TOKYO_R50_DIR TOKYO_R50_LONG TOKYO_R50_SHORT TOKYO_R30_DIR TOKYO_R30_LONG TOKYO_R30_SHORT TOKYO_LAND CMA_LAT CMA_LON CMA_CAT CMA_WIND CMA_PRES HKO_LAT HKO_LON HKO_CAT HKO_WIND HKO_PRES NEWDELHI_LAT NEWDELHI_LON NEWDELHI_GRADE NEWDELHI_WIND NEWDELHI_PRES NEWDELHI_CI NEWDELHI_DP NEWDELHI_POCI REUNION_LAT REUNION_LON REUNION_TYPE REUNION_WIND REUNION_PRES REUNION_TNUM REUNION_CI REUNION_RMW REUNION_R34_NE REUNION_R34_SE REUNION_R34_SW REUNION_R34_NW REUNION_R50_NE REUNION_R50_SE REUNION_R50_SW REUNION_R50_NW REUNION_R64_NE REUNION_R64_SE REUNION_R64_SW REUNION_R64_NW BOM_LAT BOM_LON BOM_TYPE BOM_WIND BOM_PRES BOM_TNUM BOM_CI BOM_RMW BOM_R34_NE BOM_R34_SE BOM_R34_SW BOM_R34_NW BOM_R50_NE BOM_R50_SE BOM_R50_SW BOM_R50_NW BOM_R64_NE BOM_R64_SE BOM_R64_SW BOM_R64_NW BOM_ROCI BOM_POCI BOM_EYE BOM_POS_METHOD BOM_PRES_METHOD NADI_LAT NADI_LON NADI_CAT NADI_WIND NADI_PRES WELLINGTON_LAT WELLINGTON_LON WELLINGTON_WIND WELLINGTON_PRES DS824_LAT DS824_LON DS824_STAGE DS824_WIND DS824_PRES TD9636_LAT TD9636_LON TD9636_STAGE TD9636_WIND TD9636_PRES TD9635_LAT TD9635_LON TD9635_WIND TD9635_PRES TD9635_ROCI NEUMANN_LAT NEUMANN_LON NEUMANN_CLASS NEUMANN_WIND NEUMANN_PRES MLC_LAT MLC_LON MLC_CLASS MLC_WIND MLC_PRES USA_GUST BOM_GUST BOM_GUST_PER REUNION_GUST REUNION_GUST_PER USA_SEAHGT USA_SEARAD_NE USA_SEARAD_SE USA_SEARAD_SW USA_SEARAD_NW STORM_SPEED STORM_DIR
1980349S09100 1981 109 SI WA DAN 1980-12-14 00:00:00 TS -8.60000 99.6000 20 1006 bom main 586 566 ______O__O__O_ -1 -8.60000 99.6000 20 20 1006 1.00000 -8.60000 99.6000 TC 15 1006 -8.60000 99.6000 TC 15 1006 7 82
1980349S09100 1981 109 SI WA DAN 1980-12-14 03:00:00 TS -8.55505 99.9400 main 566 530 ______P__P__P_ -1 -8.55504 99.9400 20 22 1006 -8.55504 99.9400 TC 15 1006 -8.55504 99.9400 TC 15 1006 7 82
1980349S09100 1981 109 SI WA DAN 1980-12-14 06:00:00 TS -8.50000 100.300 25 1006 bom main 530 495 ______O__O__O_ -1 -8.50000 100.300 20 25 1006 1.50000 -8.50000 100.300 TC 15 1006 -8.50000 100.300 TC 15 1006 8 81
1980349S09100 1981 109 SI WA DAN 1980-12-14 09:00:00 TS -8.43498 100.693 main 495 471 ______P__P__P_ -1 -8.43498 100.693 20 25 1005 -8.43498 100.693 TC 17 1005 -8.43498 100.693 TC 17 1005 8 83
1980349S09100 1981 109 SI WA DAN 1980-12-14 12:00:00 TS -8.40000 101.100 25 1005 bom main 471 440 ______O__O__O_ -1 -8.40000 101.100 20 25 1005 1.50000 -8.40000 101.100 TC 20 1005 -8.40000 101.100 TC 20 1005 8 89
1980349S09100 1981 109 SI WA DAN 1980-12-14 15:00:00 TS -8.42002 101.522 main 440 410 ______P__P__P_ -1 -8.42002 101.522 20 25 1005 -8.42002 101.522 TC 20 1005 -8.42002 101.522 TC 20 1005 8 97
1980349S09100 1981 109 SI WA DAN 1980-12-14 18:00:00 TS -8.50000 101.900 25 1005 bom main 410 387 ______O__O__O_ -1 -8.50000 101.900 20 25 1005 1.50000 -8.50000 101.900 TC 20 1005 -8.50000 101.900 TC 20 1005 7 105
1980349S09100 1981 109 SI WA DAN 1980-12-14 21:00:00 TS -8.60202 102.222 main 387 375 ______P__P__P_ -1 -8.62611 102.201 20 25 1004 -8.58998 102.232 TC 20 1004 -8.58998 102.232 TC 20 1004 6 121
1980349S09100 1981 109 SI WA DAN 1980-12-15 00:00:00 TS -8.80000 102.400 25 1004 bom main 381 381 ______O__O__O_ -1 -8.80000 102.400 20 25 1004 2.00000 -8.80000 102.400 TC 20 1004 -8.80000 102.400 TC 20 1004 6 163
1980349S09100 1981 109 SI WA DAN 1980-12-15 03:00:00 TS -9.14163 102.393 25 1003 bom main 402 402 ______O__P__P_ -1 -9.00000 102.500 20 25 1003 2.00000 -9.21244 102.340 TC 22 1003 -9.21244 102.340 TC 22 1003 10 198
1980349S09100 1981 109 SI WA DAN 1980-12-15 06:00:00 TS -9.70000 102.100 25 1002 bom main 471 471 ______O__O__O_ -1 -9.70000 102.100 20 25 1002 2.00000 -9.70000 102.100 TC 25 1002 -9.70000 102.100 TC 25 1002 12 216
1980349S09100 1981 109 SI WA DAN 1980-12-15 09:00:00 TS -10.1401 101.660 25 1001 bom main 533 533 ______O__P__P_ -1 -10.1000 101.600 20 25 1001 2.00000 -10.1602 101.690 TC 27 1001 -10.1602 101.690 TC 27 1001 11 221
1980349S09100 1981 109 SI WA DAN 1980-12-15 12:00:00 TS -10.5000 101.400 25 1000 bom main 588 581 ______O__O__O_ -1 -10.5000 101.400 20 25 1000 2.00000 -10.5000 101.400 TC 30 1000 -10.5000 101.400 TC 30 1000 5 189
1980349S09100 1981 109 SI WA DAN 1980-12-15 15:00:00 TS -10.6217 101.578 30 998 bom main 581 559 ______O__P__P_ -1 -10.6000 101.600 20 30 998 2.50000 -10.6325 101.567 TC 32 998 -10.6325 101.567 TC 32 998 5 102
1980349S09100 1981 109 SI WA DAN 1980-12-15 18:00:00 TS -10.6000 101.900 30 996 bom main 559 536 ______O__O__O_ -1 -10.6000 101.900 20 30 996 2.50000 -10.6000 101.900 TC 35 996 -10.6000 101.900 TC 35 996 5 75
1980349S09100 1981 109 SI WA DAN 1980-12-15 21:00:00 TS -10.4874 102.090 main 536 505 ______P__P__P_ -1 -10.4874 102.100 20 35 994 -10.4874 102.085 TC 40 994 -10.4874 102.085 TC 40 994 5 53
1980349S09100 1981 109 SI WA DAN 1980-12-16 00:00:00 TS -10.3000 102.300 40 992 bom main 505 467 ______O__O__O_ -1 -10.3000 102.300 30 40 992 3.00000 -10.3000 102.300 TC 45 992 -10.3000 102.300 TC 45 992 7 53
1980349S09100 1981 109 SI WA DAN 1980-12-16 03:00:00 TS -10.0925 102.628 main 467 423 ______P__P__P_ -1 -10.0925 102.628 30 42 990 -10.0925 102.628 TC 47 990 -10.0925 102.628 TC 47 990 8 60
1980349S09100 1981 109 SI WA DAN 1980-12-16 06:00:00 TS -9.90000 103.000 45 989 bom main 423 386 ______O__O__O_ -1 -9.90000 103.000 30 45 989 3.00000 -9.90000 103.000 TC 50 989 -9.90000 103.000 TC 50 989 8 64
1980349S09100 1981 109 SI WA DAN 1980-12-16 09:00:00 TS -9.74182 103.363 main 380 364 ______P__P__P_ -1 -9.74545 103.360 30 47 987 -9.74001 103.365 TC 50 987 -9.74001 103.365 TC 52 987 7 74
1980349S09100 1981 109 SI WA DAN 1980-12-16 12:00:00 TS -9.70000 103.700 50 986 bom main 364 355 ______O__O__O_ -1 -9.70000 103.700 30 50 986 3.50000 -9.70000 103.700 TC 50 986 -9.70000 103.700 TC 55 986 6 97
1980349S09100 1981 109 SI WA DAN 1980-12-16 15:00:00 TS -9.81665 103.987 50 985 bom main 361 361 ______O__P__P_ -1 -9.80000 104.000 30 50 985 3.50000 -9.82498 103.980 TC 52 985 -9.82498 103.980 TC 55 985 6 129
1980349S09100 1981 109 SI WA DAN 1980-12-16 18:00:00 TS -10.1000 104.200 50 985 bom main 385 385 ______O__O__O_ -1 -10.1000 104.200 30 50 985 3.50000 -10.1000 104.200 TC 55 985 -10.1000 104.200 TC 55 985 8 150
1980349S09100 1981 109 SI WA DAN 1980-12-16 21:00:00 TS -10.4659 104.371 main 411 411 ______P__P__P_ -1 -10.4727 104.367 30 50 985 -10.4625 104.373 TC 52 985 -10.4625 104.373 TC 55 985 9 160
1980349S09100 1981 109 SI WA DAN 1980-12-17 00:00:00 TS -10.9000 104.500 50 986 bom main 444 444 ______O__O__O_ -1 -10.9000 104.500 30 50 986 3.50000 -10.9000 104.500 TC 50 986 -10.9000 104.500 TC 55 986 9 166
1980349S09100 1981 109 SI WA DAN 1980-12-17 03:00:00 TS -11.3725 104.608 main 489 489 ______P__P__P_ -1 -11.3725 104.608 30 45 987 -11.3725 104.608 TC 50 987 -11.3725 104.608 TC 52 987 9 168
1980349S09100 1981 109 SI WA DAN 1980-12-17 06:00:00 TS -11.8000 104.700 40 988 bom main 526 526 ______O__O__O_ -1 -11.8000 104.700 30 40 988 3.00000 -11.8000 104.700 TC 50 988 -11.8000 104.700 TC 50 988 7 165
1980349S09100 1981 109 SI WA DAN 1980-12-17 09:00:00 TS -12.0650 104.800 main 554 554 ______P__P__P_ -1 -12.0650 104.800 30 35 989 -12.0650 104.800 TC 47 989 -12.0650 104.800 TC 47 989 5 159
1980349S09100 1981 109 SI WA DAN 1980-12-17 12:00:00 TS -12.3000 104.900 30 990 bom main 572 572 ______O__O__O_ -1 -12.3000 104.900 20 30 990 2.50000 -12.3000 104.900 TC 45 990 -12.3000 104.900 TC 45 990 6 162
1980349S09100 1981 109 SI WA DAN 1980-12-17 15:00:00 TS -12.6425 104.993 main 602 602 ______P__P__P_ -1 -12.6425 104.993 20 30 991 -12.6425 104.993 TC 45 991 -12.6425 104.993 TC 45 991 7 165
1980349S09100 1981 109 SI WA DAN 1980-12-17 18:00:00 TS -13.0000 105.100 30 992 bom main 643 643 ______O__O__O_ -1 -13.0000 105.100 20 30 992 2.50000 -13.0000 105.100 TC 45 992 -13.0000 105.100 TC 45 992 7 160
1980349S09100 1981 109 SI WA DAN 1980-12-17 21:00:00 TS -13.3150 105.240 main 673 671 ______P__P__P_ -1 -13.3150 105.240 20 27 993 -13.3150 105.240 TC 42 993 -13.3150 105.240 TC 42 993 7 154
1980349S09100 1981 109 SI WA DAN 1980-12-18 00:00:00 TS -13.6000 105.400 25 994 bom main 702 ______O__O__O_ -1 -13.6000 105.400 20 25 994 2.00000 -13.6000 105.400 TC 40 994 -13.6000 105.400 TC 40 994 7 152

IBTrACS Databaseについて

本データベースは、米国NOAAが公開する1842年以降の世界の熱帯低気圧のベストトラックデータアーカイブInternational Best Track Archive for Climate Stewardship (IBTrACS)を、ウェブで閲覧しやすい形式に変換したものです。

最終更新日:2021-10-08